Thunder radar more information blitzortung!


Radar de pluja more information rain snow radar


Visita la nostra xarxa de llocs de meteo:

Template documentation
and downloads

And another site



No particular awareness of the weather is required.    There are no Weather-warnings

Pagina Historial Weather Underground text

Diari Resum Novembre 23, 2017 Unitats:  Tant    Imperial   Mètric
« Previous Dia
SegĂźent Dia »
Diari Setmana Mensual Anual Personalitzada
  Maxima: Minima: Media:
Temperatura: 67.6 °F /  19.8 °C 42.8 °F /  6.0 °C 54.9 °F /  12.7 °C
Punt de rosada: 54.3 °F /  12.4 °C 35.4 °F /  1.9 °C 47.1 °F /  8.4 °C
Humitat: 90 % 62 % 76 %
Wind Speed: 5.8 mph /  9.3 km/h - 2.1 mph /  3.3 km/h
RĂ fegues de vent: 6 mph /  9.7 km/h - -
Vent:- - SW
Pression baro: 30.1 in /  1019.9 hPa 30.1 in /  1017.8 hPa -
Precipitacions: 0 in /  0.0 mm    
Historical Graphs
 
 
Dades de taula per Novembre 23, 2017
Temps Temperatura Punt de rosada Pression baro Vent Wind Speed RĂ fegues de vent Humitat Rainfall Rate (Hourly)
00:04 47.3 °F /  8.5 °C 42.1 °F /  5.6 °C 30.1 in /  1017.8 hPa Calm     82 % 0 in /  0.0 mm
00:09 47.5 °F /  8.6 °C 42.6 °F /  5.9 °C 30.1 in /  1017.8 hPa NE 2.3 mph /  3.7 km/h 2.3 mph /  3.7 km/h 83 % 0 in /  0.0 mm
00:14 47.1 °F /  8.4 °C 42.3 °F /  5.7 °C 30.1 in /  1017.8 hPa NE 2.3 mph /  3.7 km/h 2.3 mph /  3.7 km/h 83 % 0 in /  0.0 mm
00:15 44.2 °F /  6.8 °C 40.6 °F /  4.8 °C 30.1 in /  1017.8 hPa Calm     87 % 0 in /  0.0 mm
00:35 43.3 °F /  6.3 °C 39.4 °F /  4.1 °C 30.1 in /  1017.8 hPa Calm   2 mph /  3.2 km/h 86 % 0 in /  0.0 mm
00:45 43.3 °F /  6.3 °C 39.7 °F /  4.3 °C 30.1 in /  1017.8 hPa Calm     87 % 0 in /  0.0 mm
00:55 43.5 °F /  6.4 °C 39.9 °F /  4.4 °C 30.1 in /  1017.8 hPa Calm     87 % 0 in /  0.0 mm
01:05 43.3 °F /  6.3 °C 39.4 °F /  4.1 °C 30.1 in /  1017.8 hPa SW 2 mph /  3.2 km/h 2 mph /  3.2 km/h 86 % 0 in /  0.0 mm
01:15 43 °F /  6.1 °C 38.8 °F /  3.8 °C 30.1 in /  1017.8 hPa SW 1 mph /  1.6 km/h 2 mph /  3.2 km/h 85 % 0 in /  0.0 mm
01:25 42.8 °F /  6.0 °C 38.7 °F /  3.7 °C 30.1 in /  1017.8 hPa SW 2 mph /  3.2 km/h 3 mph /  4.8 km/h 85 % 0 in /  0.0 mm
01:35 43 °F /  6.1 °C 38.8 °F /  3.8 °C 30.1 in /  1017.8 hPa WSW 1 mph /  1.6 km/h 2 mph /  3.2 km/h 85 % 0 in /  0.0 mm
01:45 43 °F /  6.1 °C 39 °F /  3.9 °C 30.1 in /  1017.8 hPa Calm     86 % 0 in /  0.0 mm
02:05 43.2 °F /  6.2 °C 39.6 °F /  4.2 °C 30.1 in /  1017.8 hPa Calm   1 mph /  1.6 km/h 87 % 0 in /  0.0 mm
02:15 43 °F /  6.1 °C 39 °F /  3.9 °C 30.1 in /  1018.8 hPa NNE 1 mph /  1.6 km/h 2 mph /  3.2 km/h 86 % 0 in /  0.0 mm
02:25 43.5 °F /  6.4 °C 39.9 °F /  4.4 °C 30.1 in /  1018.8 hPa WSW 1 mph /  1.6 km/h 2 mph /  3.2 km/h 87 % 0 in /  0.0 mm
02:35 44.1 °F /  6.7 °C 40.6 °F /  4.8 °C 30.1 in /  1018.8 hPa Calm     88 % 0 in /  0.0 mm
02:45 44.2 °F /  6.8 °C 40.8 °F /  4.9 °C 30.1 in /  1017.8 hPa West 1 mph /  1.6 km/h 2 mph /  3.2 km/h 88 % 0 in /  0.0 mm
02:55 45 °F /  7.2 °C 41.9 °F /  5.5 °C 30.1 in /  1017.8 hPa Calm     89 % 0 in /  0.0 mm
03:05 45 °F /  7.2 °C 41.5 °F /  5.3 °C 30.1 in /  1017.8 hPa SW 1 mph /  1.6 km/h 1 mph /  1.6 km/h 88 % 0 in /  0.0 mm
03:15 45 °F /  7.2 °C 41.5 °F /  5.3 °C 30.1 in /  1018.8 hPa Calm   1 mph /  1.6 km/h 88 % 0 in /  0.0 mm
03:25 45.1 °F /  7.3 °C 41.7 °F /  5.4 °C 30.1 in /  1018.8 hPa Calm     88 % 0 in /  0.0 mm
03:35 45.3 °F /  7.4 °C 42.3 °F /  5.7 °C 30.1 in /  1018.8 hPa Calm   2 mph /  3.2 km/h 89 % 0 in /  0.0 mm
03:45 45.1 °F /  7.3 °C 41.7 °F /  5.4 °C 30.1 in /  1018.8 hPa SSW 1 mph /  1.6 km/h 2 mph /  3.2 km/h 88 % 0 in /  0.0 mm
03:55 45.3 °F /  7.4 °C 42.1 °F /  5.6 °C 30.1 in /  1018.8 hPa WSW 1 mph /  1.6 km/h 2 mph /  3.2 km/h 88 % 0 in /  0.0 mm
04:05 45.7 °F /  7.6 °C 42.3 °F /  5.7 °C 30.1 in /  1018.8 hPa SW 1 mph /  1.6 km/h 2 mph /  3.2 km/h 88 % 0 in /  0.0 mm
04:15 46 °F /  7.8 °C 42.6 °F /  5.9 °C 30.1 in /  1018.8 hPa SW 1 mph /  1.6 km/h 2 mph /  3.2 km/h 88 % 0 in /  0.0 mm
04:25 46.8 °F /  8.2 °C 43.7 °F /  6.5 °C 30.1 in /  1018.8 hPa Calm     89 % 0 in /  0.0 mm
04:35 48.4 °F /  9.1 °C 45.7 °F /  7.6 °C 30.1 in /  1018.8 hPa WNW 1 mph /  1.6 km/h 1 mph /  1.6 km/h 90 % 0 in /  0.0 mm
04:45 49.6 °F /  9.8 °C 46.6 °F /  8.1 °C 30.1 in /  1018.8 hPa NE 1 mph /  1.6 km/h 2 mph /  3.2 km/h 89 % 0 in /  0.0 mm
04:55 51.1 °F /  10.6 °C 47.7 °F /  8.7 °C 30.1 in /  1018.8 hPa SE 1 mph /  1.6 km/h 2 mph /  3.2 km/h 88 % 0 in /  0.0 mm
05:05 51.4 °F /  10.8 °C 47.5 °F /  8.6 °C 30.1 in /  1018.8 hPa SW 1 mph /  1.6 km/h 2 mph /  3.2 km/h 86 % 0 in /  0.0 mm
05:15 51.8 °F /  11.0 °C 47.1 °F /  8.4 °C 30.1 in /  1019.9 hPa SSW 2 mph /  3.2 km/h 2 mph /  3.2 km/h 84 % 0 in /  0.0 mm
05:25 53.1 °F /  11.7 °C 48 °F /  8.9 °C 30.1 in /  1018.8 hPa South 1 mph /  1.6 km/h 3 mph /  4.8 km/h 83 % 0 in /  0.0 mm
05:35 53.8 °F /  12.1 °C 48 °F /  8.9 °C 30.1 in /  1018.8 hPa NNE 1 mph /  1.6 km/h 3 mph /  4.8 km/h 81 % 0 in /  0.0 mm
05:45 53.6 °F /  12.0 °C 47.1 °F /  8.4 °C 30.1 in /  1019.9 hPa NNE 3 mph /  4.8 km/h 6 mph /  9.7 km/h 79 % 0 in /  0.0 mm
05:55 53.4 °F /  11.9 °C 47.1 °F /  8.4 °C 30.1 in /  1018.8 hPa NE 1 mph /  1.6 km/h 4 mph /  6.4 km/h 79 % 0 in /  0.0 mm
11:57 54 °F /  12.2 °C 47.3 °F /  8.5 °C 30.1 in /  1018.8 hPa NE 2.3 mph /  3.7 km/h 2.3 mph /  3.7 km/h 78 % 0 in /  0.0 mm
11:58 54 °F /  12.2 °C 47.3 °F /  8.5 °C 30.1 in /  1018.8 hPa NE 2.3 mph /  3.7 km/h 2.3 mph /  3.7 km/h 78 % 0 in /  0.0 mm
12:03 54.1 °F /  12.3 °C 47.5 °F /  8.6 °C 30.1 in /  1018.8 hPa NW 3.5 mph /  5.6 km/h 3.5 mph /  5.6 km/h 78 % 0 in /  0.0 mm
12:08 54 °F /  12.2 °C 46.9 °F /  8.3 °C 30.1 in /  1018.8 hPa North 2.3 mph /  3.7 km/h 2.3 mph /  3.7 km/h 77 % 0 in /  0.0 mm
12:13 54.1 °F /  12.3 °C 47.1 °F /  8.4 °C 30.1 in /  1018.8 hPa North 2.3 mph /  3.7 km/h 2.3 mph /  3.7 km/h 77 % 0 in /  0.0 mm
12:18 54.3 °F /  12.4 °C 46.9 °F /  8.3 °C 30.1 in /  1018.8 hPa East 2.3 mph /  3.7 km/h   76 % 0 in /  0.0 mm
12:23 54.5 °F /  12.5 °C 47.1 °F /  8.4 °C 30.1 in /  1018.8 hPa NW 2 mph /  3.2 km/h   76 % 0 in /  0.0 mm
12:28 54.5 °F /  12.5 °C 47.1 °F /  8.4 °C 30.1 in /  1018.8 hPa ENE 2.3 mph /  3.7 km/h 2.3 mph /  3.7 km/h 76 % 0 in /  0.0 mm
12:33 54.7 °F /  12.6 °C 47.3 °F /  8.5 °C 30.1 in /  1018.8 hPa NNW 2.3 mph /  3.7 km/h 2.3 mph /  3.7 km/h 76 % 0 in /  0.0 mm
12:38 54.9 °F /  12.7 °C 47.5 °F /  8.6 °C 30.1 in /  1018.8 hPa NW 2.3 mph /  3.7 km/h 2.3 mph /  3.7 km/h 76 % 0 in /  0.0 mm
12:43 55.2 °F /  12.9 °C 47.8 °F /  8.8 °C 30.1 in /  1018.8 hPa North 1.2 mph /  1.9 km/h 1.2 mph /  1.9 km/h 76 % 0 in /  0.0 mm
12:48 56.3 °F /  13.5 °C 48.7 °F /  9.3 °C 30.1 in /  1018.8 hPa SW 2.3 mph /  3.7 km/h 2.3 mph /  3.7 km/h 76 % 0 in /  0.0 mm
12:53 57.4 °F /  14.1 °C 49.8 °F /  9.9 °C 30.1 in /  1018.8 hPa West 2.6 mph /  4.2 km/h 2.6 mph /  4.2 km/h 76 % 0 in /  0.0 mm
12:58 58.1 °F /  14.5 °C 50.2 °F /  10.1 °C 30.1 in /  1018.8 hPa SSE 2.3 mph /  3.7 km/h 2.3 mph /  3.7 km/h 75 % 0 in /  0.0 mm
13:08 59.4 °F /  15.2 °C 51.4 °F /  10.8 °C 30.1 in /  1018.8 hPa SW 1.2 mph /  1.9 km/h   75 % 0 in /  0.0 mm
13:13 59.9 °F /  15.5 °C 52 °F /  11.1 °C 30.1 in /  1018.8 hPa SW 4.6 mph /  7.4 km/h 4.6 mph /  7.4 km/h 75 % 0 in /  0.0 mm
13:18 60.4 °F /  15.8 °C 52.2 °F /  11.2 °C 30.1 in /  1018.8 hPa WSW 2.3 mph /  3.7 km/h 2.3 mph /  3.7 km/h 74 % 0 in /  0.0 mm
13:23 61 °F /  16.1 °C 53.1 °F /  11.7 °C 30.1 in /  1018.8 hPa SW 3.5 mph /  5.6 km/h 3.5 mph /  5.6 km/h 75 % 0 in /  0.0 mm
13:28 61.5 °F /  16.4 °C 53.4 °F /  11.9 °C 30.1 in /  1018.8 hPa SW 4.6 mph /  7.4 km/h 4.6 mph /  7.4 km/h 75 % 0 in /  0.0 mm
13:33 61.9 °F /  16.6 °C 53.4 °F /  11.9 °C 30.1 in /  1017.8 hPa SW 4.6 mph /  7.4 km/h 4.6 mph /  7.4 km/h 74 % 0 in /  0.0 mm
13:38 62.1 °F /  16.7 °C 53.8 °F /  12.1 °C 30.1 in /  1017.8 hPa SW 5.8 mph /  9.3 km/h 5.8 mph /  9.3 km/h 74 % 0 in /  0.0 mm
13:43 62.4 °F /  16.9 °C 53.6 °F /  12.0 °C 30.1 in /  1017.8 hPa WSW 4.6 mph /  7.4 km/h 4.6 mph /  7.4 km/h 73 % 0 in /  0.0 mm
13:48 62.6 °F /  17.0 °C 53.4 °F /  11.9 °C 30.1 in /  1017.8 hPa SW 5.4 mph /  8.7 km/h 5.4 mph /  8.7 km/h 72 % 0 in /  0.0 mm
13:53 62.8 °F /  17.1 °C 53.6 °F /  12.0 °C 30.1 in /  1017.8 hPa WNW 3.5 mph /  5.6 km/h 3.5 mph /  5.6 km/h 72 % 0 in /  0.0 mm
13:58 63.1 °F /  17.3 °C 54 °F /  12.2 °C 30.1 in /  1017.8 hPa SW 3.5 mph /  5.6 km/h 3.5 mph /  5.6 km/h 72 % 0 in /  0.0 mm
14:03 63.5 °F /  17.5 °C 54 °F /  12.2 °C 30.1 in /  1017.8 hPa West 3.1 mph /  5.0 km/h 3.1 mph /  5.0 km/h 71 % 0 in /  0.0 mm
14:08 63.7 °F /  17.6 °C 53.8 °F /  12.1 °C 30.1 in /  1017.8 hPa WSW 4.6 mph /  7.4 km/h 4.6 mph /  7.4 km/h 70 % 0 in /  0.0 mm
14:18 64 °F /  17.8 °C 53.8 °F /  12.1 °C 30.1 in /  1017.8 hPa SW 5.8 mph /  9.3 km/h 5.8 mph /  9.3 km/h 69 % 0 in /  0.0 mm
14:28 64.9 °F /  18.3 °C 54.1 °F /  12.3 °C 30.1 in /  1017.8 hPa SW 3.5 mph /  5.6 km/h 3.5 mph /  5.6 km/h 68 % 0 in /  0.0 mm
14:33 65.1 °F /  18.4 °C 54.3 °F /  12.4 °C 30.1 in /  1017.8 hPa SW 3.5 mph /  5.6 km/h 3.5 mph /  5.6 km/h 68 % 0 in /  0.0 mm
14:38 65.1 °F /  18.4 °C 54.3 °F /  12.4 °C 30.1 in /  1017.8 hPa WSW 4.6 mph /  7.4 km/h 4.6 mph /  7.4 km/h 68 % 0 in /  0.0 mm
14:43 65.1 °F /  18.4 °C 54.3 °F /  12.4 °C 30.1 in /  1017.8 hPa SW 5.8 mph /  9.3 km/h 5.8 mph /  9.3 km/h 68 % 0 in /  0.0 mm
14:53 65.1 °F /  18.4 °C 54 °F /  12.2 °C 30.1 in /  1017.8 hPa SW 5.8 mph /  9.3 km/h 5.8 mph /  9.3 km/h 67 % 0 in /  0.0 mm
14:58 65.7 °F /  18.7 °C 54.3 °F /  12.4 °C 30.1 in /  1017.8 hPa WSW 5.8 mph /  9.3 km/h 5.8 mph /  9.3 km/h 67 % 0 in /  0.0 mm
15:03 65.8 °F /  18.8 °C 54.1 °F /  12.3 °C 30.1 in /  1017.8 hPa SSW 5.8 mph /  9.3 km/h 5.8 mph /  9.3 km/h 66 % 0 in /  0.0 mm
15:08 65.8 °F /  18.8 °C 54.1 °F /  12.3 °C 30.1 in /  1017.8 hPa SSW 3.5 mph /  5.6 km/h 3.5 mph /  5.6 km/h 66 % 0 in /  0.0 mm
15:23 66.7 °F /  19.3 °C 53.8 °F /  12.1 °C 30.1 in /  1017.8 hPa West 4.6 mph /  7.4 km/h 4.6 mph /  7.4 km/h 63 % 0 in /  0.0 mm
15:28 66.6 °F /  19.2 °C 53.6 °F /  12.0 °C 30.1 in /  1017.8 hPa SW 4.6 mph /  7.4 km/h 4.6 mph /  7.4 km/h 63 % 0 in /  0.0 mm
15:33 66.7 °F /  19.3 °C 53.8 °F /  12.1 °C 30.1 in /  1017.8 hPa WSW 3.1 mph /  5.0 km/h 3.1 mph /  5.0 km/h 63 % 0 in /  0.0 mm
15:38 67.1 °F /  19.5 °C 54.1 °F /  12.3 °C 30.1 in /  1017.8 hPa WSW 3.6 mph /  5.8 km/h 3.6 mph /  5.8 km/h 63 % 0 in /  0.0 mm
15:43 67.3 °F /  19.6 °C 54.3 °F /  12.4 °C 30.1 in /  1017.8 hPa SW 3.5 mph /  5.6 km/h 3.5 mph /  5.6 km/h 63 % 0 in /  0.0 mm
15:48 67.3 °F /  19.6 °C 53.8 °F /  12.1 °C 30.1 in /  1017.8 hPa SSW 4.6 mph /  7.4 km/h 4.6 mph /  7.4 km/h 62 % 0 in /  0.0 mm
15:58 67.6 °F /  19.8 °C 54.1 °F /  12.3 °C 30.1 in /  1017.8 hPa SW 2.3 mph /  3.7 km/h 2.3 mph /  3.7 km/h 62 % 0 in /  0.0 mm
16:03 67.5 °F /  19.7 °C 54 °F /  12.2 °C 30.1 in /  1017.8 hPa SW 3.8 mph /  6.1 km/h 3.8 mph /  6.1 km/h 62 % 0 in /  0.0 mm
16:08 67.3 °F /  19.6 °C 53.8 °F /  12.1 °C 30.1 in /  1017.8 hPa SW 4.6 mph /  7.4 km/h 4.6 mph /  7.4 km/h 62 % 0 in /  0.0 mm
16:13 67.3 °F /  19.6 °C 53.8 °F /  12.1 °C 30.1 in /  1017.8 hPa SW 4.3 mph /  6.9 km/h 4.3 mph /  6.9 km/h 62 % 0 in /  0.0 mm
16:18 67.3 °F /  19.6 °C 53.8 °F /  12.1 °C 30.1 in /  1017.8 hPa SSW 4 mph /  6.4 km/h 4 mph /  6.4 km/h 62 % 0 in /  0.0 mm
16:23 67.1 °F /  19.5 °C 53.6 °F /  12.0 °C 30.1 in /  1017.8 hPa SW 4.6 mph /  7.4 km/h 4.6 mph /  7.4 km/h 62 % 0 in /  0.0 mm
16:28 66.7 °F /  19.3 °C 53.2 °F /  11.8 °C 30.1 in /  1017.8 hPa SW 3.5 mph /  5.6 km/h 3.5 mph /  5.6 km/h 62 % 0 in /  0.0 mm
16:38 66.4 °F /  19.1 °C 53.1 °F /  11.7 °C 30.1 in /  1017.8 hPa SW 2.3 mph /  3.7 km/h 2.3 mph /  3.7 km/h 62 % 0 in /  0.0 mm
16:43 66 °F /  18.9 °C 53.4 °F /  11.9 °C 30.1 in /  1017.8 hPa SW 2.4 mph /  3.9 km/h 2.4 mph /  3.9 km/h 64 % 0 in /  0.0 mm
16:48 65.8 °F /  18.8 °C 53.2 °F /  11.8 °C 30.1 in /  1017.8 hPa WSW 2.3 mph /  3.7 km/h 2.3 mph /  3.7 km/h 64 % 0 in /  0.0 mm
16:58 65.1 °F /  18.4 °C 52.5 °F /  11.4 °C 30.1 in /  1017.8 hPa SW 2.3 mph /  3.7 km/h 2.3 mph /  3.7 km/h 64 % 0 in /  0.0 mm
17:03 64.6 °F /  18.1 °C 52.5 °F /  11.4 °C 30.1 in /  1017.8 hPa Calm     65 % 0 in /  0.0 mm
17:08 64.2 °F /  17.9 °C 52.2 °F /  11.2 °C 30.1 in /  1017.8 hPa West 2.3 mph /  3.7 km/h 2.3 mph /  3.7 km/h 65 % 0 in /  0.0 mm
17:13 63.7 °F /  17.6 °C 51.6 °F /  10.9 °C 30.1 in /  1017.8 hPa Calm     65 % 0 in /  0.0 mm
17:28 62.1 °F /  16.7 °C 51.4 °F /  10.8 °C 30.1 in /  1018.8 hPa WSW 1.2 mph /  1.9 km/h 1.2 mph /  1.9 km/h 68 % 0 in /  0.0 mm
17:33 61.7 °F /  16.5 °C 51.1 °F /  10.6 °C 30.1 in /  1017.8 hPa Calm     68 % 0 in /  0.0 mm
17:43 61 °F /  16.1 °C 50.7 °F /  10.4 °C 30.1 in /  1017.8 hPa Calm     69 % 0 in /  0.0 mm
17:48 60.8 °F /  16.0 °C 51.1 °F /  10.6 °C 30.1 in /  1018.8 hPa Calm     70 % 0 in /  0.0 mm
17:53 60.6 °F /  15.9 °C 50.7 °F /  10.4 °C 30.1 in /  1018.8 hPa WSW 2 mph /  3.2 km/h 2 mph /  3.2 km/h 70 % 0 in /  0.0 mm
18:03 59.4 °F /  15.2 °C 49.6 °F /  9.8 °C 30.1 in /  1018.8 hPa West 1.4 mph /  2.3 km/h 1.4 mph /  2.3 km/h 70 % 0 in /  0.0 mm
18:08 59.2 °F /  15.1 °C 49.8 °F /  9.9 °C 30.1 in /  1018.8 hPa WSW 2.3 mph /  3.7 km/h 2.3 mph /  3.7 km/h 71 % 0 in /  0.0 mm
18:13 58.8 °F /  14.9 °C 49.8 °F /  9.9 °C 30.1 in /  1018.8 hPa SW 2.3 mph /  3.7 km/h   72 % 0 in /  0.0 mm
18:18 58.6 °F /  14.8 °C 49.6 °F /  9.8 °C 30.1 in /  1018.8 hPa SW 2.3 mph /  3.7 km/h 2.3 mph /  3.7 km/h 72 % 0 in /  0.0 mm
18:23 58.1 °F /  14.5 °C 49.5 °F /  9.7 °C 30.1 in /  1018.8 hPa SW 2.3 mph /  3.7 km/h 2.3 mph /  3.7 km/h 73 % 0 in /  0.0 mm
18:28 57.7 °F /  14.3 °C 49.1 °F /  9.5 °C 30.1 in /  1018.8 hPa SW 2.6 mph /  4.2 km/h 2.6 mph /  4.2 km/h 73 % 0 in /  0.0 mm
18:33 57.4 °F /  14.1 °C 48.7 °F /  9.3 °C 30.1 in /  1018.8 hPa SW 3.5 mph /  5.6 km/h 3.5 mph /  5.6 km/h 73 % 0 in /  0.0 mm
18:38 57.2 °F /  14.0 °C 48.6 °F /  9.2 °C 30.1 in /  1018.8 hPa SW 2.9 mph /  4.7 km/h 2.9 mph /  4.7 km/h 73 % 0 in /  0.0 mm
18:43 57.2 °F /  14.0 °C 48.9 °F /  9.4 °C 30.1 in /  1018.8 hPa SW 3.5 mph /  5.6 km/h 3.5 mph /  5.6 km/h 74 % 0 in /  0.0 mm
18:58 57.9 °F /  14.4 °C 50.4 °F /  10.2 °C 30.1 in /  1018.8 hPa SW 4.6 mph /  7.4 km/h 4.6 mph /  7.4 km/h 76 % 0 in /  0.0 mm
19:03 57.7 °F /  14.3 °C 50.2 °F /  10.1 °C 30.1 in /  1019.9 hPa WSW 3.5 mph /  5.6 km/h 3.5 mph /  5.6 km/h 76 % 0 in /  0.0 mm
19:13 57.6 °F /  14.2 °C 50.4 °F /  10.2 °C 30.1 in /  1019.9 hPa WSW 3.5 mph /  5.6 km/h 3.5 mph /  5.6 km/h 77 % 0 in /  0.0 mm
19:18 57.4 °F /  14.1 °C 50.2 °F /  10.1 °C 30.1 in /  1019.9 hPa SW 3.1 mph /  5.0 km/h 3.1 mph /  5.0 km/h 77 % 0 in /  0.0 mm
19:23 57.2 °F /  14.0 °C 50.2 °F /  10.1 °C 30.1 in /  1019.9 hPa SW 4.6 mph /  7.4 km/h 4.6 mph /  7.4 km/h 77 % 0 in /  0.0 mm
19:28 57 °F /  13.9 °C 50.2 °F /  10.1 °C 30.1 in /  1019.9 hPa SW 3.5 mph /  5.6 km/h 3.5 mph /  5.6 km/h 78 % 0 in /  0.0 mm
19:33 56.8 °F /  13.8 °C 50.2 °F /  10.1 °C 30.1 in /  1019.9 hPa WSW 3.5 mph /  5.6 km/h 3.5 mph /  5.6 km/h 78 % 0 in /  0.0 mm
19:38 56.5 °F /  13.6 °C 50 °F /  10.0 °C 30.1 in /  1019.9 hPa West 2.3 mph /  3.7 km/h 2.3 mph /  3.7 km/h 79 % 0 in /  0.0 mm
19:43 56.3 °F /  13.5 °C 49.8 °F /  9.9 °C 30.1 in /  1019.9 hPa West 2.3 mph /  3.7 km/h 2.3 mph /  3.7 km/h 79 % 0 in /  0.0 mm
19:48 56.1 °F /  13.4 °C 49.6 °F /  9.8 °C 30.1 in /  1019.9 hPa WNW 1.2 mph /  1.9 km/h   79 % 0 in /  0.0 mm
19:53 55.9 °F /  13.3 °C 49.8 °F /  9.9 °C 30.1 in /  1019.9 hPa West 1.2 mph /  1.9 km/h   80 % 0 in /  0.0 mm
19:58 55.8 °F /  13.2 °C 49.6 °F /  9.8 °C 30.1 in /  1019.9 hPa Calm     80 % 0 in /  0.0 mm
20:08 55.2 °F /  12.9 °C 49.3 °F /  9.6 °C 30.1 in /  1019.9 hPa West 1.2 mph /  1.9 km/h   80 % 0 in /  0.0 mm
20:13 55.2 °F /  12.9 °C 48.7 °F /  9.3 °C 30.1 in /  1019.9 hPa West 3.5 mph /  5.6 km/h 3.5 mph /  5.6 km/h 79 % 0 in /  0.0 mm
20:23 55.4 °F /  13.0 °C 48.9 °F /  9.4 °C 30.1 in /  1019.9 hPa WSW 4.6 mph /  7.4 km/h 4.6 mph /  7.4 km/h 79 % 0 in /  0.0 mm
20:28 55.4 °F /  13.0 °C 49.3 °F /  9.6 °C 30.1 in /  1019.9 hPa WSW 2.3 mph /  3.7 km/h 2.3 mph /  3.7 km/h 80 % 0 in /  0.0 mm
20:33 55.2 °F /  12.9 °C 49.3 °F /  9.6 °C 30.1 in /  1019.9 hPa WSW 2.3 mph /  3.7 km/h 2.3 mph /  3.7 km/h 80 % 0 in /  0.0 mm
20:38 55 °F /  12.8 °C 48.9 °F /  9.4 °C 30.1 in /  1019.9 hPa WSW 2.3 mph /  3.7 km/h 2.3 mph /  3.7 km/h 80 % 0 in /  0.0 mm
20:58 54.5 °F /  12.5 °C 49.1 °F /  9.5 °C 30.1 in /  1019.9 hPa West 1.4 mph /  2.3 km/h 1.4 mph /  2.3 km/h 82 % 0 in /  0.0 mm
20:59 54.5 °F /  12.5 °C 49.1 °F /  9.5 °C 30.1 in /  1019.9 hPa SW 2.3 mph /  3.7 km/h 2.3 mph /  3.7 km/h 82 % 0 in /  0.0 mm
21:04 54.5 °F /  12.5 °C 49.1 °F /  9.5 °C 30.1 in /  1019.9 hPa WSW 2.3 mph /  3.7 km/h 2.3 mph /  3.7 km/h 82 % 0 in /  0.0 mm
21:05 48.9 °F /  9.4 °C 39.9 °F /  4.4 °C 30.1 in /  1018.8 hPa WNW 1 mph /  1.6 km/h 2 mph /  3.2 km/h 71 % 0 in /  0.0 mm
21:09 54.3 °F /  12.4 °C 48.9 °F /  9.4 °C 30.1 in /  1019.9 hPa West 2.2 mph /  3.5 km/h   82 % 0 in /  0.0 mm
21:14 54 °F /  12.2 °C 48.4 °F /  9.1 °C 30.1 in /  1019.9 hPa WSW 1.2 mph /  1.9 km/h 1.4 mph /  2.3 km/h 81 % 0 in /  0.0 mm
21:15 49.1 °F /  9.5 °C 39 °F /  3.9 °C 30.1 in /  1019.9 hPa WNW 1 mph /  1.6 km/h 1 mph /  1.6 km/h 68 % 0 in /  0.0 mm
21:19 53.8 °F /  12.1 °C 48 °F /  8.9 °C 30.1 in /  1019.9 hPa WSW 1.2 mph /  1.9 km/h   81 % 0 in /  0.0 mm
21:25 49.8 °F /  9.9 °C 39.4 °F /  4.1 °C 30.1 in /  1019.9 hPa WNW 1 mph /  1.6 km/h 2 mph /  3.2 km/h 67 % 0 in /  0.0 mm
21:29 53.2 °F /  11.8 °C 47.7 °F /  8.7 °C 30.1 in /  1019.9 hPa Calm     81 % 0 in /  0.0 mm
21:35 50.7 °F /  10.4 °C 40.3 °F /  4.6 °C 30.1 in /  1019.9 hPa NW 1 mph /  1.6 km/h 1 mph /  1.6 km/h 67 % 0 in /  0.0 mm
21:39 52.7 °F /  11.5 °C 46.9 °F /  8.3 °C 30.1 in /  1019.9 hPa WNW 1.2 mph /  1.9 km/h 1.2 mph /  1.9 km/h 81 % 0 in /  0.0 mm
21:44 52.5 °F /  11.4 °C 46.6 °F /  8.1 °C 30.1 in /  1019.9 hPa WSW 2.3 mph /  3.7 km/h 2.3 mph /  3.7 km/h 80 % 0 in /  0.0 mm
21:45 50.4 °F /  10.2 °C 38.7 °F /  3.7 °C 30.1 in /  1018.8 hPa Calm   2 mph /  3.2 km/h 64 % 0 in /  0.0 mm
21:49 52.2 °F /  11.2 °C 46.2 °F /  7.9 °C 30.1 in /  1019.9 hPa West 2 mph /  3.2 km/h 2 mph /  3.2 km/h 80 % 0 in /  0.0 mm
21:55 49.8 °F /  9.9 °C 38.1 °F /  3.4 °C 30.1 in /  1018.8 hPa Calm   1 mph /  1.6 km/h 64 % 0 in /  0.0 mm
21:59 52.3 °F /  11.3 °C 46 °F /  7.8 °C 30.1 in /  1019.9 hPa WSW 2.3 mph /  3.7 km/h 2.3 mph /  3.7 km/h 79 % 0 in /  0.0 mm
22:04 52.2 °F /  11.2 °C 45.5 °F /  7.5 °C 30.1 in /  1019.9 hPa WSW 1.2 mph /  1.9 km/h 1.2 mph /  1.9 km/h 78 % 0 in /  0.0 mm
22:19 52.3 °F /  11.3 °C 46 °F /  7.8 °C 30.1 in /  1019.9 hPa Calm     79 % 0 in /  0.0 mm
22:24 52.2 °F /  11.2 °C 45.9 °F /  7.7 °C 30.1 in /  1019.9 hPa Calm     79 % 0 in /  0.0 mm
22:25 47.3 °F /  8.5 °C 37.2 °F /  2.9 °C 30.1 in /  1018.8 hPa Calm   2 mph /  3.2 km/h 68 % 0 in /  0.0 mm
22:29 51.4 °F /  10.8 °C 45.1 °F /  7.3 °C 30.1 in /  1019.9 hPa SSE 1.4 mph /  2.3 km/h 1.4 mph /  2.3 km/h 79 % 0 in /  0.0 mm
22:34 51.1 °F /  10.6 °C 44.8 °F /  7.1 °C 30.1 in /  1019.9 hPa SSW 1.6 mph /  2.6 km/h 1.6 mph /  2.6 km/h 79 % 0 in /  0.0 mm
22:35 46.8 °F /  8.2 °C 36.9 °F /  2.7 °C 30.1 in /  1018.8 hPa Calm     68 % 0 in /  0.0 mm
22:39 50.5 °F /  10.3 °C 44.2 °F /  6.8 °C 30.1 in /  1019.9 hPa Calm     79 % 0 in /  0.0 mm
22:44 50.2 °F /  10.1 °C 43.9 °F /  6.6 °C 30.1 in /  1019.9 hPa Calm     79 % 0 in /  0.0 mm
22:45 46.6 °F /  8.1 °C 37 °F /  2.8 °C 30.1 in /  1018.8 hPa WNW 2 mph /  3.2 km/h 2 mph /  3.2 km/h 69 % 0 in /  0.0 mm
22:55 46.6 °F /  8.1 °C 37 °F /  2.8 °C 30.1 in /  1018.8 hPa Calm   3 mph /  4.8 km/h 69 % 0 in /  0.0 mm
22:59 48.9 °F /  9.4 °C 42.4 °F /  5.8 °C 30.1 in /  1019.9 hPa WSW 2.3 mph /  3.7 km/h 2.3 mph /  3.7 km/h 78 % 0 in /  0.0 mm
23:04 49.5 °F /  9.7 °C 43.2 °F /  6.2 °C 30.1 in /  1019.9 hPa WSW 2.4 mph /  3.9 km/h 2.4 mph /  3.9 km/h 79 % 0 in /  0.0 mm
23:05 46.8 °F /  8.2 °C 37 °F /  2.8 °C 30.1 in /  1018.8 hPa Calm   1 mph /  1.6 km/h 69 % 0 in /  0.0 mm
23:14 49.1 °F /  9.5 °C 43.2 °F /  6.2 °C 30.1 in /  1019.9 hPa Calm     80 % 0 in /  0.0 mm
23:15 47.7 °F /  8.7 °C 37.2 °F /  2.9 °C 30.1 in /  1018.8 hPa West 1 mph /  1.6 km/h 2 mph /  3.2 km/h 67 % 0 in /  0.0 mm
23:24 48.9 °F /  9.4 °C 43 °F /  6.1 °C 30.1 in /  1019.9 hPa SW 1.2 mph /  1.9 km/h 1.2 mph /  1.9 km/h 80 % 0 in /  0.0 mm
23:25 47.1 °F /  8.4 °C 36.7 °F /  2.6 °C 30.1 in /  1018.8 hPa NNW 3 mph /  4.8 km/h 3 mph /  4.8 km/h 67 % 0 in /  0.0 mm
23:29 48.9 °F /  9.4 °C 43.3 °F /  6.3 °C 30.1 in /  1019.9 hPa Calm     81 % 0 in /  0.0 mm
23:34 48.7 °F /  9.3 °C 43.2 °F /  6.2 °C 30.1 in /  1019.9 hPa Calm     81 % 0 in /  0.0 mm
23:35 46.8 °F /  8.2 °C 36.3 °F /  2.4 °C 30.1 in /  1018.8 hPa North 1 mph /  1.6 km/h 3 mph /  4.8 km/h 67 % 0 in /  0.0 mm
23:45 46.6 °F /  8.1 °C 36.1 °F /  2.3 °C 30.1 in /  1018.8 hPa NE 1 mph /  1.6 km/h 1 mph /  1.6 km/h 67 % 0 in /  0.0 mm
23:49 48.6 °F /  9.2 °C 42.6 °F /  5.9 °C 30.1 in /  1019.9 hPa Calm     80 % 0 in /  0.0 mm
23:55 45.5 °F /  7.5 °C 35.4 °F /  1.9 °C 30.1 in /  1018.8 hPa SSW 3 mph /  4.8 km/h 3 mph /  4.8 km/h 68 % 0 in /  0.0 mm
23:59 48.4 °F /  9.1 °C 42.4 °F /  5.8 °C 30.1 in /  1019.9 hPa NNE 2.3 mph /  3.7 km/h 2.3 mph /  3.7 km/h 80 % 0 in /  0.0 mm
Meteo Sesrovires
Elogis d' Weather Underground - 3.25 mb

Guio original per  Jim McMurry - jmcmurry@mwt.net Adaptat per a la plantilla per  Wim van der Kuil - Leuven-Template.eu

Trobareu la nostra informacio del temps tambe a:

Weather Underground

AWEKAS